Terminal Aerodrome Forecast
Issued by NWS

Home | Current Version | Previous Version | Text Only | Print | Product List | Glossary On
Versions: 1 2 3 4 5 6 7 8 9 10 11 12
000
FTUS44 KSJT 301700 RRA
TAFJCT
TAF
KJCT 301742Z 3018/3118 07010KT P6SM OVC080
     FM310300 10011KT P6SM OVC025
     FM310600 12010KT P6SM OVC015
     FM311200 13011KT 5SM -RA BR OVC008=

USA.gov is the U.S. government's official web portal to all federal, state and local government web resources and services.